Young, AZ (85554)

5:47 AM MST on October 24, 2014 (GMT -0700)
KAZYOUNG4 | Change Station
CLOSE
Current Station
Personal Weather Station
Location: Young, AZ
Elevation: 5328 ft
Nearby Weather Stations

Elev 5328 ft 34.09 °N, 111.00 °W | Updated 17 minutes ago

Clear
Clear
48.8 °F
Feels Like 49 °F
N
0.0
Wind Variable Wind from West
Gusts 0.0 mph

Today
High -- | Low -- °F
--% Chance of Precip.
Yesterday
High -- | Low -- °F
Precip. -- in
6:37 AM 5:39 PM
New Moon, 0% visible
Pressure 30.28 in
Visibility 10.0 miles
Clouds Clear
Windchill 49 °F
Dew Point 42 °F
Humidity 78%
Rainfall 0.00 in
Snow Depth Not available.
UV 0 out of 12
Pollen 5.40 out of 12
PM2.5 Moderate
Flu Activity No Activity
METAR KPAN 241235Z AUTO 00000KT 10SM CLR 12/04 A3028 RMK AO2

More Conditions Fewer Conditions

Pressure 30.28 in
Visibility 10.0 miles
Clouds Clear
Windchill 49 °F
Dew Point 42 °F
Humidity 78%
Rainfall 0.00 in
Snow Depth Not available.
UV 0 out of 12
Pollen 5.40 out of 12
PM2.5 Moderate
Flu Activity No Activity
METAR KPAN 241235Z AUTO 00000KT 10SM CLR 12/04 A3028 RMK AO2

More Conditions Fewer Conditions

10-Day Weather Forecast

Almanac

Astronomy

Oct. 24, 2014 Rise Set
Actual Time 6:37 AM MST 5:39 PM MST
Civil Twilight 6:11 AM MST 6:05 PM MST
Nautical Twilight 5:42 AM MST 6:34 PM MST
Astronomical Twilight 5:13 AM MST 7:03 PM MST
Moon 7:18 AM MST 6:24 PM MST
Length of Visible Light 11h 53m
Length of Day
11h 02m
Tomorrow will be 1m 56s shorter.
New Moon, 0% of the Moon is Illuminated
Today
New Moon
Oct 30
First Quarter
Nov 6
Full
Nov 14
Last Quarter
Nov 22
New

Today's Extremes

State Highs State Lows

Community

WunderPhotos

Upload Photos

1,764,544 photos uploaded!

Nearby

Air Quality

  Air Quality AQ Index Pollutant
Yesterday Good
PM2.5
Yesterday Good
OZONE
Current Moderate
PM2.5
Friday Good
OZONE
Friday Good
PM10
Friday Good
CO
Saturday Good
OZONE
Saturday Good
PM10
Saturday Good
CO

Snow Depth

Station Depth Elevation
Promontory 0 in 7930 ft
Workman Creek 0 in 6900 ft
Baker Butte 0 in 7300 ft
Heber 0 in 7640 ft
Happy Jack 0 in 7630 ft

Earthquake Activity

City Distance Mag. Time & Date
No recent earthquake activity has been reported nearby.
Minimum magnitude displayed is 2.5.

Coastal Water Temperatures

Place Temperature
No Stations Reporting

Nearby Weather Stations